Time;durP1;ratioP1;P1;durP2;ratioP2;P2;SDS_P1;SDS_P2;PMS_P1;PMS_P2;Temp;Humidity;BMP_temperature;BMP_pressure;BME280_temperature;BME280_humidity;BME280_pressure;Samples;Min_cycle;Max_cycle;Signal;HPM_P1;HPM_P2
2021/05/13 00:01:17;;;;;;;;;1.00;1.00;;;;;21.95;56.41;97131.41;4915341;28;102493;-72
2021/05/13 00:03:46;;;;;;;;;3.00;3.00;;;;;21.93;56.37;97134.47;4929618;28;102138;-71
2021/05/13 00:06:13;;;;;;;;;3.00;3.00;;;;;21.93;56.31;97126.19;4924668;28;111385;-72
2021/05/13 00:08:40;;;;;;;;;2.00;2.00;;;;;21.93;56.13;97125.41;4905853;28;108889;-72
2021/05/13 00:11:08;;;;;;;;;2.67;2.67;;;;;21.93;56.33;97122.66;4902265;28;104655;-72
2021/05/13 00:13:36;;;;;;;;;3.00;2.00;;;;;21.92;55.96;97116.31;4911730;28;102348;-72
2021/05/13 00:16:04;;;;;;;;;1.33;1.33;;;;;21.92;56.14;97116.31;4923946;28;105396;-71
2021/05/13 00:18:32;;;;;;;;;3.00;2.33;;;;;21.91;56.09;97117.44;4846033;28;104226;-72
2021/05/13 00:21:00;;;;;;;;;2.33;2.33;;;;;21.91;56.27;97111.09;4932207;28;102623;-72
2021/05/13 00:23:27;;;;;;;;;1.67;1.67;;;;;21.90;56.31;97110.28;4937774;28;102146;-72
2021/05/13 00:25:55;;;;;;;;;2.33;2.33;;;;;21.90;56.35;97115.78;4935914;28;105901;-72
2021/05/13 00:28:22;;;;;;;;;2.00;2.00;;;;;21.91;56.06;97111.91;4917297;28;103867;-71
2021/05/13 00:30:50;;;;;;;;;2.33;2.33;;;;;21.90;56.19;97099.28;4915671;28;104656;-71
2021/05/13 00:33:17;;;;;;;;;2.00;2.00;;;;;21.89;56.14;97097.66;4925683;28;102671;-71
2021/05/13 00:35:45;;;;;;;;;3.00;2.00;;;;;21.88;56.45;97090.53;4940362;28;105474;-71
2021/05/13 00:38:13;;;;;;;;;2.00;2.00;;;;;21.88;56.02;97096.03;4930977;28;103327;-72
2021/05/13 00:40:40;;;;;;;;;2.00;2.00;;;;;21.87;56.34;97099.91;4916926;28;102458;-72
2021/05/13 00:43:07;;;;;;;;;2.33;2.33;;;;;21.87;56.14;97088.09;4937154;28;102812;-72
2021/05/13 00:45:35;;;;;;;;;1.67;1.67;;;;;21.86;56.44;97098.28;4913240;28;112478;-72
2021/05/13 00:48:05;;;;;;;;;3.00;3.00;;;;;21.87;55.97;97097.16;4929827;28;103249;-72
2021/05/13 00:50:33;;;;;;;;;2.00;2.00;;;;;21.86;56.35;97092.78;4942962;28;102338;-72
2021/05/13 00:53:05;;;;;;;;;2.67;2.67;;;;;21.86;56.12;97098.28;4940501;28;103027;-72
2021/05/13 00:55:34;;;;;;;;;2.33;2.33;;;;;21.86;56.03;97091.94;4934599;28;102205;-72
2021/05/13 00:58:02;;;;;;;;;1.00;1.00;;;;;21.85;56.38;97090.31;4919718;28;104090;-72
2021/05/13 01:02:59;;;;;;;;;2.00;2.00;;;;;21.83;55.90;97087.91;4916991;28;102607;-72
2021/05/13 01:05:27;;;;;;;;;2.00;2.00;;;;;21.84;56.79;97081.25;4920731;28;102263;-72
2021/05/13 01:07:58;;;;;;;;;2.00;2.00;;;;;21.84;56.57;97083.22;4909481;28;104446;-72
2021/05/13 01:10:26;;;;;;;;;2.00;2.00;;;;;21.82;56.21;97086.25;4916635;28;105092;-72
2021/05/13 01:12:54;;;;;;;;;2.00;2.00;;;;;21.83;56.43;97087.09;4932014;28;102242;-72
2021/05/13 01:18:05;;;;;;;;;3.00;2.00;;;;;21.80;56.84;97083.00;4926772;28;104142;-72
2021/05/13 01:20:32;;;;;;;;;2.00;2.00;;;;;21.82;56.12;97080.75;4908991;28;103000;-72
2021/05/13 01:23:00;;;;;;;;;3.67;3.00;;;;;21.81;56.60;97073.63;4930324;28;102624;-72
2021/05/13 01:25:27;;;;;;;;;2.00;2.00;;;;;21.80;56.79;97074.75;4929712;28;105570;-72
2021/05/13 01:28:01;;;;;;;;;2.00;2.00;;;;;21.81;56.71;97076.38;4922917;28;103217;-72
2021/05/13 01:30:29;;;;;;;;;2.00;1.67;;;;;21.81;56.15;97079.13;4916717;28;104374;-72
2021/05/13 01:33:00;;;;;;;;;3.00;2.33;;;;;21.79;56.72;97076.69;4926180;28;102779;-72
2021/05/13 01:35:27;;;;;;;;;3.00;3.00;;;;;21.80;56.41;97074.75;4931982;28;102965;-72
2021/05/13 01:38:10;;;;;;;;;4.00;2.00;;;;;21.79;56.77;97067.63;4912191;28;106327;-72
2021/05/13 01:40:42;;;;;;;;;2.00;2.00;;;;;21.78;56.75;97066.00;4926267;28;102361;-72
2021/05/13 01:43:10;;;;;;;;;2.00;2.00;;;;;21.77;56.72;97069.88;4933068;28;102422;-72
2021/05/13 01:45:40;;;;;;;;;3.67;2.00;;;;;21.77;56.79;97056.09;4926590;28;104426;-72
2021/05/13 01:48:08;;;;;;;;;1.00;1.00;;;;;21.78;56.49;97055.00;4918557;28;104245;-72
2021/05/13 01:50:35;;;;;;;;;2.00;2.00;;;;;21.78;56.57;97052.25;4928913;28;102359;-72
2021/05/13 01:53:05;;;;;;;;;1.00;1.00;;;;;21.77;56.37;97045.09;4925358;28;102919;-72
2021/05/13 01:55:33;;;;;;;;;2.00;1.00;;;;;21.77;56.61;97045.91;4938359;28;104809;-72
2021/05/13 01:58:01;;;;;;;;;3.33;2.67;;;;;21.77;56.99;97045.09;4914705;28;105182;-72
2021/05/13 02:00:29;;;;;;;;;2.00;2.00;;;;;21.76;56.37;97033.28;4924861;28;104367;-72
2021/05/13 02:02:56;;;;;;;;;2.00;2.00;;;;;21.76;56.83;97038.78;4921695;28;102518;-72
2021/05/13 02:05:24;;;;;;;;;1.33;1.33;;;;;21.76;56.73;97026.97;4933952;28;102336;-72
2021/05/13 02:07:51;;;;;;;;;2.00;2.00;;;;;21.76;56.93;97024.22;4933646;28;104128;-72
2021/05/13 02:10:19;;;;;;;;;2.00;1.33;;;;;21.76;56.74;97029.72;4922193;28;104460;-72
2021/05/13 02:12:48;;;;;;;;;1.00;1.00;;;;;21.75;56.83;97017.06;4928900;28;102204;-72
2021/05/13 02:15:17;;;;;;;;;2.00;2.00;;;;;21.75;56.32;97015.13;4932505;28;102358;-72
2021/05/13 02:17:44;;;;;;;;;2.00;2.00;;;;;21.75;56.37;97015.13;4924410;28;111237;-72
2021/05/13 02:20:14;;;;;;;;;1.67;1.00;;;;;21.75;56.73;97019.81;4926460;28;103595;-72
2021/05/13 02:22:41;;;;;;;;;1.00;1.00;;;;;21.76;56.66;97024.22;4929902;28;102451;-72
2021/05/13 02:25:09;;;;;;;;;2.00;2.00;;;;;21.74;56.33;97015.47;4917738;28;105229;-72
2021/05/13 02:27:37;;;;;;;;;1.67;1.67;;;;;21.73;56.53;97008.34;4920631;28;104177;-72
2021/05/13 02:30:06;;;;;;;;;2.00;2.00;;;;;21.74;56.85;97012.72;4919423;28;103051;-72
2021/05/13 02:32:33;;;;;;;;;3.00;2.00;;;;;21.75;56.69;97014.31;4934111;28;102347;-72
2021/05/13 02:35:00;;;;;;;;;1.00;1.00;;;;;21.74;56.65;97013.53;4929529;28;102833;-72
2021/05/13 02:37:27;;;;;;;;;2.00;2.00;;;;;21.73;56.40;97008.34;4930357;28;105982;-72
2021/05/13 02:39:55;;;;;;;;;2.00;2.00;;;;;21.72;56.68;97006.69;4921922;28;102865;-72
2021/05/13 02:42:22;;;;;;;;;1.00;1.00;;;;;21.72;56.40;97004.75;4928042;28;102341;-71
2021/05/13 02:44:49;;;;;;;;;1.00;1.00;;;;;21.72;56.68;97003.94;4921411;28;102390;-72
2021/05/13 02:47:16;;;;;;;;;2.00;2.00;;;;;21.72;56.24;96993.75;4933980;28;104242;-72
2021/05/13 02:49:43;;;;;;;;;1.67;1.67;;;;;21.72;56.26;96990.19;4924540;28;107010;-72
2021/05/13 02:52:10;;;;;;;;;2.00;2.00;;;;;21.72;56.93;96998.44;4927107;28;102497;-72
2021/05/13 02:54:37;;;;;;;;;1.00;1.00;;;;;21.72;56.28;96990.19;4917383;28;105310;-72
2021/05/13 02:57:05;;;;;;;;;2.67;1.67;;;;;21.71;56.88;96983.88;4917628;28;105629;-72
2021/05/13 02:59:43;;;;;;;;;2.00;2.00;;;;;21.70;56.51;96984.19;4925406;28;102282;-72
2021/05/13 03:02:10;;;;;;;;;1.67;1.67;;;;;21.67;56.22;96979.31;4928660;28;102493;-72
2021/05/13 03:04:38;;;;;;;;;3.00;2.00;;;;;21.70;56.73;96973.97;4927386;28;103005;-72
2021/05/13 03:07:05;;;;;;;;;2.67;1.67;;;;;21.70;56.79;96978.69;4910970;28;104076;-72
2021/05/13 03:09:36;;;;;;;;;1.33;1.33;;;;;21.70;56.08;96985.00;4920042;28;108007;-72
2021/05/13 03:12:04;;;;;;;;;1.67;1.67;;;;;21.70;56.64;96973.19;4930147;28;102511;-72
2021/05/13 03:14:32;;;;;;;;;2.33;2.33;;;;;21.70;56.12;96967.69;4927801;28;102926;-72
2021/05/13 03:16:59;;;;;;;;;2.67;1.67;;;;;21.70;56.62;96973.19;4924381;28;104080;-72
2021/05/13 03:19:41;;;;;;;;;2.00;2.00;;;;;21.70;56.63;96973.19;4925377;28;102388;-72
2021/05/13 03:22:12;;;;;;;;;1.67;1.67;;;;;21.69;55.90;96977.88;4933610;28;104700;-72
2021/05/13 03:24:48;;;;;;;;;2.00;2.00;;;;;21.67;56.68;96973.81;4929946;28;105309;-72
2021/05/13 03:29:54;;;;;;;;;1.67;1.67;;;;;21.67;56.44;96969.13;4934456;28;102571;-72
2021/05/13 03:32:22;;;;;;;;;2.00;2.00;;;;;;;;4927240;28;102686;-72
2021/05/13 03:34:49;;;;;;;;;2.67;2.67;;;;;;;;4921664;28;104096;-73
2021/05/13 03:37:19;;;;;;;;;2.33;2.33;;;;;21.67;56.83;96968.31;4909324;28;104270;-72
2021/05/13 03:39:47;;;;;;;;;2.00;1.67;;;;;21.66;56.40;96963.91;4925020;28;102404;-72
2021/05/13 03:42:14;;;;;;;;;1.67;1.67;;;;;21.65;56.29;96957.63;4917550;28;102678;-72
2021/05/13 03:44:44;;;;;;;;;1.67;1.67;;;;;21.64;56.36;96957.94;4924040;28;104051;-72
2021/05/13 03:47:11;;;;;;;;;2.00;2.00;;;;;21.66;56.03;96955.66;4913014;28;104242;-72
2021/05/13 03:49:38;;;;;;;;;2.00;2.00;;;;;21.64;56.67;96958.75;4926106;28;102020;-72
2021/05/13 03:52:06;;;;;;;;;1.67;1.67;;;;;21.64;56.65;96960.69;4922106;28;102350;-72
2021/05/13 03:54:33;;;;;;;;;4.00;4.00;;;;;21.64;56.45;96952.44;4929035;28;102493;-72
2021/05/13 03:57:00;;;;;;;;;1.67;1.67;;;;;21.63;56.00;96950.78;4923038;28;104106;-72
2021/05/13 03:59:33;;;;;;;;;2.00;2.00;;;;;21.63;56.11;96950.78;4935726;28;102536;-72
2021/05/13 04:02:22;;;;;;;;;2.00;2.00;;;;;21.64;56.36;96944.19;4931304;28;104140;-72
2021/05/13 04:04:49;;;;;;;;;1.00;1.00;;;;;21.62;56.26;96938.16;4935157;28;104466;-72
2021/05/13 04:07:18;;;;;;;;;2.00;1.67;;;;;21.63;54.64;96948.03;4932939;28;109867;-72
2021/05/13 04:09:46;;;;;;;;;1.33;1.33;;;;;21.64;55.13;96941.44;4931617;28;102755;-72
2021/05/13 04:12:13;;;;;;;;;2.00;2.00;;;;;21.64;55.52;96946.94;4933077;28;102390;-72
2021/05/13 04:14:40;;;;;;;;;2.00;2.00;;;;;21.67;55.57;96940.78;4945408;28;103762;-72
2021/05/13 04:17:08;;;;;;;;;1.67;1.67;;;;;21.66;55.53;96939.16;4919819;28;103851;-72
2021/05/13 04:19:35;;;;;;;;;2.00;2.00;;;;;21.68;56.46;96939.66;4933566;28;102372;-72
2021/05/13 04:22:02;;;;;;;;;3.00;2.67;;;;;21.66;57.33;96936.41;4926214;28;103598;-72
2021/05/13 04:24:30;;;;;;;;;0.33;0.33;;;;;21.68;58.18;96936.91;4922659;28;103640;-72
2021/05/13 04:26:57;;;;;;;;;2.00;2.00;;;;;21.64;58.01;96927.66;4933190;28;104205;-72
2021/05/13 04:29:24;;;;;;;;;1.33;1.33;;;;;21.64;57.99;96930.41;4929731;28;102586;-72
2021/05/13 04:31:51;;;;;;;;;2.00;2.00;;;;;21.64;58.49;96924.91;4919874;28;102418;-72
2021/05/13 04:34:19;;;;;;;;;1.67;1.67;;;;;21.63;58.48;96923.28;4915684;28;102342;-72
2021/05/13 04:36:46;;;;;;;;;2.67;2.67;;;;;21.62;58.88;96922.47;4930158;28;105277;-72
2021/05/13 04:39:13;;;;;;;;;2.00;2.00;;;;;21.61;59.14;96917.31;4926057;28;102218;-72
2021/05/13 04:41:40;;;;;;;;;2.00;2.00;;;;;21.60;59.39;96910.16;4921819;28;102845;-72
2021/05/13 04:44:07;;;;;;;;;1.67;1.33;;;;;21.60;59.00;96919.25;4926053;28;102349;-72
2021/05/13 04:46:36;;;;;;;;;2.00;2.00;;;;;21.60;59.24;96915.66;4933778;28;103947;-72
2021/05/13 04:51:37;;;;;;;;;0.67;0.67;;;;;21.60;59.48;96912.91;4932689;28;103100;-72
2021/05/13 04:54:04;;;;;;;;;1.67;1.67;;;;;21.60;59.24;96913.72;4915042;28;104157;-72
2021/05/13 04:56:32;;;;;;;;;1.33;1.33;;;;;21.59;59.50;96909.34;4926696;28;104218;-72
2021/05/13 04:58:59;;;;;;;;;2.00;2.00;;;;;21.60;59.18;96907.41;4924601;28;103273;-72
2021/05/13 05:01:26;;;;;;;;;1.00;1.00;;;;;21.60;59.63;96904.66;4928017;28;105538;-72
2021/05/13 05:03:54;;;;;;;;;2.00;2.00;;;;;21.60;59.77;96912.91;4924554;28;102477;-72
2021/05/13 05:06:21;;;;;;;;;2.00;2.00;;;;;21.60;59.50;96904.66;4930593;28;104119;-72
2021/05/13 05:08:48;;;;;;;;;2.67;2.00;;;;;21.59;59.06;96901.09;4920535;28;102343;-72
2021/05/13 05:11:17;;;;;;;;;2.33;2.00;;;;;21.59;59.27;96905.78;4929282;28;102439;-72
2021/05/13 05:13:44;;;;;;;;;2.33;2.00;;;;;21.59;59.47;96897.53;4940687;28;103064;-72
2021/05/13 05:16:11;;;;;;;;;3.00;2.00;;;;;21.58;59.61;96896.72;4937118;28;104161;-72
2021/05/13 05:18:38;;;;;;;;;3.67;3.00;;;;;21.59;59.76;96901.09;4932623;28;102535;-72
2021/05/13 05:21:05;;;;;;;;;2.00;2.00;;;;;21.59;60.01;96900.28;4944189;28;103594;-72
2021/05/13 05:23:33;;;;;;;;;3.00;2.33;;;;;21.60;59.86;96901.91;4929787;28;102227;-72
2021/05/13 05:26:00;;;;;;;;;1.33;1.33;;;;;21.59;60.03;96894.78;4931311;28;103722;-71
2021/05/13 05:28:32;;;;;;;;;3.00;2.00;;;;;21.60;59.99;96888.16;4933728;28;105719;-72
2021/05/13 05:30:59;;;;;;;;;1.00;1.00;;;;;21.58;60.14;96891.22;4930655;28;103130;-72
2021/05/13 05:33:26;;;;;;;;;2.00;2.00;;;;;21.59;60.15;96889.28;4934620;28;102317;-72
2021/05/13 05:35:53;;;;;;;;;1.33;1.33;;;;;21.59;60.15;96889.28;4947510;28;104059;-71
2021/05/13 05:38:20;;;;;;;;;2.67;2.67;;;;;21.59;60.28;96887.34;4942228;28;102483;-72
2021/05/13 05:40:50;;;;;;;;;2.00;2.00;;;;;21.59;60.01;96881.03;4938789;28;102219;-72
2021/05/13 05:43:17;;;;;;;;;2.00;2.00;;;;;21.59;60.49;96883.78;4935230;28;102371;-72
2021/05/13 05:45:44;;;;;;;;;2.33;2.33;;;;;21.58;60.50;96893.97;4927911;28;104655;-72
2021/05/13 05:48:11;;;;;;;;;3.00;3.00;;;;;21.59;59.93;96892.03;4938670;28;102153;-72
2021/05/13 05:50:40;;;;;;;;;3.00;2.00;;;;;21.58;60.48;96893.97;4933412;28;103879;-71
2021/05/13 05:53:07;;;;;;;;;2.00;2.00;;;;;21.59;60.35;96892.03;4936880;28;102248;-72
2021/05/13 05:55:34;;;;;;;;;2.00;2.00;;;;;21.57;60.13;96889.59;4946163;28;104068;-72
2021/05/13 05:58:02;;;;;;;;;3.00;2.00;;;;;21.59;60.14;96894.78;4946161;28;102078;-72
2021/05/13 06:00:29;;;;;;;;;2.33;2.33;;;;;21.58;60.45;96893.16;4927886;28;102273;-72
2021/05/13 06:02:57;;;;;;;;;5.00;3.00;;;;;21.58;60.66;96898.66;4930760;28;102217;-72
2021/05/13 06:05:24;;;;;;;;;2.00;2.00;;;;;21.59;60.33;96892.03;4921841;28;104081;-71
2021/05/13 06:07:52;;;;;;;;;2.33;2.00;;;;;21.58;60.49;96895.91;4945279;28;103388;-72
2021/05/13 06:10:19;;;;;;;;;3.00;2.00;;;;;21.57;60.91;96892.34;4938451;28;104905;-72
2021/05/13 06:12:47;;;;;;;;;2.00;2.00;;;;;21.55;60.62;96891.84;4937588;28;102442;-72
2021/05/13 06:15:16;;;;;;;;;3.67;3.00;;;;;21.56;60.59;96889.91;4926393;28;104228;-72
2021/05/13 06:17:44;;;;;;;;;3.00;3.00;;;;;21.56;60.36;96889.91;4939765;28;102658;-72
2021/05/13 06:20:21;;;;;;;;;2.00;2.00;;;;;21.55;60.60;96883.59;4935914;28;103528;-72
2021/05/13 06:22:50;;;;;;;;;3.33;2.67;;;;;21.55;60.80;96891.03;4932862;28;102865;-72
2021/05/13 06:25:18;;;;;;;;;3.00;2.33;;;;;21.55;60.86;96886.34;4929895;28;111463;-72
2021/05/13 06:27:45;;;;;;;;;2.00;2.00;;;;;21.55;60.82;96894.59;4938927;28;102137;-72
2021/05/13 06:30:14;;;;;;;;;2.00;2.00;;;;;21.56;60.89;96895.41;4937049;28;102431;-72
2021/05/13 06:32:44;;;;;;;;;2.33;2.33;;;;;21.56;60.52;96890.72;4938519;28;104584;-73
2021/05/13 06:35:12;;;;;;;;;4.67;3.00;;;;;21.56;60.26;96887.16;4930726;28;104027;-72
2021/05/13 06:37:39;;;;;;;;;2.00;2.00;;;;;21.56;60.92;96887.97;4933222;28;102125;-72
2021/05/13 06:40:06;;;;;;;;;2.33;2.00;;;;;21.56;60.34;96895.41;4936652;28;102367;-72
2021/05/13 06:42:34;;;;;;;;;1.67;1.67;;;;;21.56;60.52;96882.47;4933924;28;105272;-72
2021/05/13 06:45:05;;;;;;;;;2.00;2.00;;;;;21.57;60.80;96883.31;4929697;28;103991;-72
2021/05/13 06:47:32;;;;;;;;;2.00;2.00;;;;;21.56;61.17;96876.16;4928747;28;103109;-72
2021/05/13 06:49:59;;;;;;;;;3.00;2.00;;;;;21.57;60.84;96881.34;4924449;28;102305;-72
2021/05/13 06:52:27;;;;;;;;;2.00;2.00;;;;;21.58;61.03;96876.66;4933350;28;102597;-72
2021/05/13 06:54:54;;;;;;;;;3.00;3.00;;;;;21.57;60.76;96875.84;4933346;28;104206;-71
2021/05/13 06:57:21;;;;;;;;;3.00;2.33;;;;;21.57;61.10;96886.84;4938960;28;102495;-72
2021/05/13 06:59:48;;;;;;;;;2.00;2.00;;;;;21.57;60.93;96886.06;4935073;28;102069;-72
2021/05/13 07:02:15;;;;;;;;;2.00;2.00;;;;;21.57;60.96;96891.56;4938325;28;102944;-72
2021/05/13 07:04:42;;;;;;;;;2.33;2.33;;;;;21.57;61.09;96878.59;4935036;28;104074;-72
2021/05/13 07:07:09;;;;;;;;;2.00;2.00;;;;;21.57;60.83;96869.53;4933412;28;102504;-72
2021/05/13 07:09:37;;;;;;;;;1.00;1.00;;;;;21.58;61.34;96876.66;4933086;28;102172;-72
2021/05/13 07:12:04;;;;;;;;;2.00;2.00;;;;;21.58;60.77;96876.66;4937980;28;105109;-72
2021/05/13 07:14:31;;;;;;;;;2.67;1.67;;;;;21.58;61.06;96879.41;4948629;28;104030;-72
2021/05/13 07:16:59;;;;;;;;;3.00;3.00;;;;;21.58;61.10;96879.41;4925748;28;103410;-72
2021/05/13 07:19:26;;;;;;;;;2.00;2.00;;;;;21.59;61.18;96890.09;4929434;28;102241;-71
2021/05/13 07:21:55;;;;;;;;;1.00;1.00;;;;;21.59;60.72;96878.28;4937526;28;105486;-72
2021/05/13 07:24:22;;;;;;;;;2.00;2.00;;;;;21.59;60.89;96881.84;4921120;28;109034;-72
2021/05/13 07:26:52;;;;;;;;;1.67;1.67;;;;;21.60;61.13;96879.91;4928618;28;103317;-72
2021/05/13 07:29:20;;;;;;;;;1.67;1.67;;;;;21.61;61.42;96873.28;4930510;28;102310;-72
2021/05/13 07:31:47;;;;;;;;;2.00;1.00;;;;;21.60;61.32;96872.47;4930315;28;102257;-72
2021/05/13 07:34:14;;;;;;;;;2.00;1.33;;;;;21.61;61.13;96874.09;4931048;28;104072;-72
2021/05/13 07:36:41;;;;;;;;;1.67;1.67;;;;;21.62;61.14;96883.16;4926896;28;103406;-72
2021/05/13 07:39:08;;;;;;;;;2.33;2.00;;;;;21.62;61.06;96872.13;4925086;28;102057;-72
2021/05/13 07:41:35;;;;;;;;;2.00;2.00;;;;;21.62;61.12;96877.66;4933542;28;102603;-72
2021/05/13 07:44:03;;;;;;;;;2.00;2.00;;;;;21.61;61.42;96874.09;4937259;28;104064;-72
2021/05/13 07:46:36;;;;;;;;;2.00;2.00;;;;;21.62;61.57;96874.88;4937739;28;102980;-72
2021/05/13 07:49:09;;;;;;;;;1.00;1.00;;;;;21.62;60.89;96872.13;4927632;28;103183;-72
2021/05/13 07:51:36;;;;;;;;;2.00;2.00;;;;;21.62;61.23;96863.88;4945113;28;104613;-72
2021/05/13 07:54:04;;;;;;;;;2.33;1.33;;;;;21.63;61.57;96854.53;4931479;28;104178;-72
2021/05/13 07:56:32;;;;;;;;;3.00;2.00;;;;;21.62;61.24;96856.44;4932049;28;102096;-72
2021/05/13 07:58:59;;;;;;;;;1.00;1.00;;;;;21.63;61.28;96847.09;4922403;28;102148;-72
2021/05/13 08:01:26;;;;;;;;;1.67;1.67;;;;;21.64;61.03;96847.91;4943735;28;102641;-72
2021/05/13 08:03:53;;;;;;;;;2.00;2.00;;;;;21.65;61.26;96855.84;4942585;28;104087;-72
2021/05/13 08:06:20;;;;;;;;;2.33;2.00;;;;;21.64;61.35;96853.41;4942790;28;104942;-72
2021/05/13 08:08:47;;;;;;;;;1.67;1.67;;;;;21.65;61.54;96853.09;4930440;28;104011;-72
2021/05/13 08:11:14;;;;;;;;;0.67;0.67;;;;;21.66;61.38;96851.13;4921964;28;103539;-72
2021/05/13 08:13:41;;;;;;;;;2.67;2.00;;;;;21.67;61.41;96853.56;4933187;28;104056;-72
2021/05/13 08:16:12;;;;;;;;;3.00;3.00;;;;;21.63;61.71;96851.75;4923737;28;102618;-72
2021/05/13 08:18:40;;;;;;;;;2.33;2.33;;;;;21.67;61.48;96853.56;4930564;28;102143;-72
2021/05/13 08:21:07;;;;;;;;;2.33;2.00;;;;;21.68;61.03;96863.47;4933540;28;102777;-72
2021/05/13 08:23:34;;;;;;;;;2.00;2.00;;;;;21.69;61.61;96850.53;4926355;28;104669;-72
2021/05/13 08:26:01;;;;;;;;;2.67;2.00;;;;;21.69;61.47;96834.81;4917045;28;102135;-72
2021/05/13 08:28:28;;;;;;;;;1.00;1.00;;;;;21.69;61.51;96840.34;4942063;28;102291;-72
2021/05/13 08:30:55;;;;;;;;;1.00;1.00;;;;;21.69;61.04;96842.25;4943595;28;102372;-72
2021/05/13 08:33:23;;;;;;;;;0.67;0.67;;;;;21.70;61.03;96839.19;4935858;28;104118;-72
2021/05/13 08:35:50;;;;;;;;;2.00;2.00;;;;;21.71;61.38;96843.56;4927102;28;102476;-72
2021/05/13 08:38:17;;;;;;;;;3.00;2.00;;;;;21.71;61.29;96848.25;4939713;28;103133;-72
2021/05/13 08:40:44;;;;;;;;;1.00;1.00;;;;;21.71;61.31;96840.81;4930982;28;104919;-72
2021/05/13 08:43:28;;;;;;;;;2.33;2.00;;;;;21.72;61.56;96839.69;4938679;28;104066;-72
2021/05/13 08:45:57;;;;;;;;;2.00;2.00;;;;;21.73;61.39;96837.75;4932069;28;102471;-72
2021/05/13 08:48:25;;;;;;;;;2.00;2.00;;;;;21.73;61.34;96835.00;4933743;28;102244;-72
2021/05/13 08:50:53;;;;;;;;;3.00;2.67;;;;;21.72;61.87;96833.38;4934118;28;103152;-72
2021/05/13 08:53:20;;;;;;;;;1.00;1.00;;;;;21.73;61.51;96835.00;4938560;28;108862;-72
2021/05/13 08:55:50;;;;;;;;;2.33;2.33;;;;;21.73;61.88;96835.81;4943676;28;102707;-72
2021/05/13 08:58:17;;;;;;;;;4.00;3.00;;;;;21.71;61.41;96826.25;4932506;28;102465;-72
2021/05/13 09:00:54;;;;;;;;;1.00;1.00;;;;;21.73;61.70;96826.75;4944979;28;105633;-72
2021/05/13 09:03:37;;;;;;;;;2.00;2.00;;;;;21.74;61.74;96828.38;4947320;28;109079;-72
2021/05/13 09:06:05;;;;;;;;;2.00;1.67;;;;;21.74;61.35;96829.19;4869695;28;106832;-72
2021/05/13 09:08:33;;;;;;;;;4.00;3.00;;;;;21.75;61.33;96829.97;4934907;28;102247;-72
2021/05/13 09:11:10;;;;;;;;;2.00;2.00;;;;;21.75;61.17;96816.22;4946886;28;102382;-72
2021/05/13 09:13:38;;;;;;;;;2.00;2.00;;;;;21.74;61.67;96807.19;4934255;28;104079;-72
2021/05/13 09:16:36;;;;;;;;;2.00;2.00;;;;;21.76;61.69;96812.34;4939514;28;103083;-72
2021/05/13 09:19:27;;;;;;;;;2.00;2.00;;;;;21.77;61.35;96819.47;4869077;28;102513;-72
2021/05/13 09:22:07;;;;;;;;;1.00;1.00;;;;;21.77;61.38;96822.22;4932914;28;102209;-72
2021/05/13 09:24:55;;;;;;;;;1.67;1.00;;;;;21.77;61.40;96812.03;4883313;28;109072;-72
2021/05/13 09:27:22;;;;;;;;;2.00;1.67;;;;;21.77;61.68;96808.47;4943586;28;102132;-72
2021/05/13 09:30:22;;;;;;;;;2.00;1.33;;;;;21.78;61.42;96799.09;4932441;28;102241;-72
2021/05/13 09:32:50;;;;;;;;;2.00;1.67;;;;;21.78;61.59;96801.84;4856528;28;102668;-72
2021/05/13 09:35:21;;;;;;;;;3.00;2.00;;;;;21.79;61.72;96806.22;4933917;28;104032;-72
2021/05/13 09:37:56;;;;;;;;;2.00;2.00;;;;;21.79;61.92;96803.47;4938485;28;102234;-72
2021/05/13 09:40:39;;;;;;;;;2.00;2.00;;;;;21.80;61.85;96796.81;4938159;28;102190;-72
2021/05/13 09:43:23;;;;;;;;;2.00;2.00;;;;;21.80;61.51;96796.81;4878723;28;102745;-72
2021/05/13 09:46:01;;;;;;;;;2.33;2.33;;;;;21.81;62.03;96799.28;4931995;28;108985;-72
2021/05/13 09:48:44;;;;;;;;;2.00;2.00;;;;;21.81;61.86;96796.53;4932658;28;102257;-71
2021/05/13 09:51:17;;;;;;;;;1.33;1.00;;;;;21.81;61.65;96788.25;4936501;28;104486;-72
2021/05/13 09:53:47;;;;;;;;;2.33;2.33;;;;;21.82;62.03;96786.34;4940752;28;102307;-72
2021/05/13 09:56:21;;;;;;;;;2.00;1.00;;;;;21.83;61.66;96787.97;4941161;28;104076;-72
2021/05/13 09:58:57;;;;;;;;;3.00;2.00;;;;;21.84;61.70;96784.06;4937389;28;103278;-72
2021/05/13 10:01:37;;;;;;;;;1.00;1.00;;;;;21.84;62.05;96777.78;4932644;28;102544;-72
2021/05/13 10:04:04;;;;;;;;;2.00;2.00;;;;;21.85;62.01;96779.38;4867351;28;102237;-72
2021/05/13 10:06:32;;;;;;;;;1.00;1.00;;;;;21.85;62.05;96771.94;4928664;28;104581;-72
2021/05/13 10:08:59;;;;;;;;;0.00;0.00;;;;;21.85;61.89;96780.19;4924451;28;102500;-72
2021/05/13 10:11:26;;;;;;;;;1.00;1.00;;;;;21.86;61.85;96765.31;4935265;28;107009;-72
2021/05/13 10:13:55;;;;;;;;;0.67;0.67;;;;;21.86;62.07;96768.06;4935970;28;102795;-72
2021/05/13 10:16:23;;;;;;;;;1.00;1.00;;;;;21.87;61.94;96760.63;4930734;28;108725;-72
2021/05/13 10:18:53;;;;;;;;;1.00;1.00;;;;;21.87;62.16;96753.16;4927104;28;102256;-72
2021/05/13 10:21:22;;;;;;;;;1.00;1.00;;;;;21.89;61.92;96759.16;4924750;28;103125;-72
2021/05/13 10:23:50;;;;;;;;;2.00;2.00;;;;;21.89;61.74;96756.41;4915919;28;102266;-72
2021/05/13 10:26:30;;;;;;;;;1.67;1.67;;;;;21.90;61.75;96757.22;4918684;28;104061;-72
2021/05/13 10:28:57;;;;;;;;;1.00;1.00;;;;;21.91;62.03;96753.34;4922904;28;102644;-71
2021/05/13 10:31:37;;;;;;;;;2.00;2.00;;;;;21.91;61.84;96748.66;4930386;28;103336;-72
2021/05/13 10:34:04;;;;;;;;;1.67;0.67;;;;;21.92;62.11;96739.28;4882523;28;102301;-72
2021/05/13 10:36:31;;;;;;;;;1.00;1.00;;;;;21.92;61.80;96739.28;4921358;28;111510;-72
2021/05/13 10:39:05;;;;;;;;;1.67;1.67;;;;;21.94;61.88;96731.53;4936740;28;102360;-72
2021/05/13 10:41:34;;;;;;;;;1.00;1.00;;;;;21.95;62.12;96732.34;4930958;28;103165;-72
2021/05/13 10:44:07;;;;;;;;;2.00;1.00;;;;;21.95;62.00;96727.66;4935956;28;104743;-72
2021/05/13 10:46:34;;;;;;;;;2.00;2.00;;;;;21.96;62.01;96715.50;4927181;28;106066;-72
2021/05/13 10:49:17;;;;;;;;;2.67;2.00;;;;;21.97;62.05;96719.91;4935784;28;102232;-72
2021/05/13 10:51:48;;;;;;;;;1.33;1.00;;;;;21.96;61.96;96715.50;4931847;28;102357;-72
2021/05/13 10:54:27;;;;;;;;;1.00;1.00;;;;;21.98;61.90;96716.00;4938666;28;102163;-73
2021/05/13 10:57:18;;;;;;;;;1.33;1.33;;;;;21.98;61.71;96710.47;4932650;28;109075;-72
2021/05/13 11:00:04;;;;;;;;;1.67;1.67;;;;;21.99;62.00;96703.84;4872254;28;103259;-72
2021/05/13 11:02:40;;;;;;;;;2.00;2.00;;;;;21.99;61.76;96708.53;4941252;28;102443;-72
2021/05/13 11:05:39;;;;;;;;;1.67;1.00;;;;;22.00;61.77;96705.47;4946359;28;102502;-72
2021/05/13 11:08:09;;;;;;;;;1.00;1.00;;;;;22.00;61.93;96702.72;4872617;28;108708;-72
2021/05/13 11:10:48;;;;;;;;;1.00;1.00;;;;;22.01;61.58;96698.84;4938646;28;103457;-72
2021/05/13 11:13:18;;;;;;;;;0.67;0.67;;;;;22.01;61.80;96698.84;4932382;28;102629;-72
2021/05/13 11:15:52;;;;;;;;;2.00;2.00;;;;;22.02;61.92;96699.66;4944185;28;102524;-72
2021/05/13 11:18:26;;;;;;;;;1.67;1.00;;;;;22.03;62.17;96696.56;4933921;28;104067;-72
2021/05/13 11:20:55;;;;;;;;;0.00;0.00;;;;;22.04;61.87;96698.19;4944423;28;102541;-72
2021/05/13 11:23:24;;;;;;;;;1.00;1.00;;;;;22.04;61.90;96692.69;4926338;28;102571;-72
2021/05/13 11:26:05;;;;;;;;;1.33;1.00;;;;;22.06;61.77;96698.72;4930269;28;102719;-72
2021/05/13 11:28:43;;;;;;;;;2.00;1.00;;;;;22.07;61.68;96694.78;4933006;28;109095;-72
2021/05/13 11:31:20;;;;;;;;;1.67;1.67;;;;;22.07;61.90;96691.22;4927464;28;104919;-72
2021/05/13 11:33:58;;;;;;;;;2.00;2.00;;;;;22.07;61.99;96694.78;4931899;28;102731;-72
2021/05/13 11:36:29;;;;;;;;;1.00;1.00;;;;;22.07;61.73;96697.56;4934262;28;104956;-72
2021/05/13 11:38:58;;;;;;;;;1.00;1.00;;;;;22.07;61.64;96685.72;4936141;28;109021;-72
2021/05/13 11:41:25;;;;;;;;;1.00;1.00;;;;;22.08;62.15;96688.16;4931844;28;102060;-72
2021/05/13 11:43:52;;;;;;;;;1.00;1.00;;;;;22.07;61.60;96689.28;4935794;28;104664;-72
2021/05/13 11:46:27;;;;;;;;;1.00;1.00;;;;;22.07;62.15;96683.78;4941994;28;112047;-72
2021/05/13 11:48:56;;;;;;;;;2.00;2.00;;;;;22.08;61.66;96681.84;4923659;28;108846;-72